createdAt,value
2023-03-05T00:01:08.620Z,45.75
2023-03-05T00:03:36.992Z,52.97
2023-03-05T00:06:07.407Z,46.58
2023-03-05T00:08:36.028Z,56.63
2023-03-05T00:11:07.046Z,50.17
2023-03-05T00:13:35.904Z,48.78
2023-03-05T00:16:04.711Z,49.65
2023-03-05T00:18:32.870Z,54.22
2023-03-05T00:21:00.861Z,51.20
2023-03-05T00:23:30.492Z,52.75
2023-03-05T00:25:58.588Z,50.72
2023-03-05T00:28:26.634Z,45.35
2023-03-05T00:30:54.754Z,42.78
2023-03-05T00:33:22.838Z,40.45
2023-03-05T00:35:51.038Z,42.17
2023-03-05T00:38:19.170Z,47.75
2023-03-05T00:40:52.139Z,43.60
2023-03-05T00:43:20.223Z,41.97
2023-03-05T00:45:48.224Z,43.67
2023-03-05T00:48:16.253Z,43.53
2023-03-05T00:50:44.407Z,40.42
2023-03-05T00:53:12.447Z,47.00
2023-03-05T00:55:40.559Z,45.53
2023-03-05T00:58:10.392Z,45.25
2023-03-05T01:00:38.582Z,46.65
2023-03-05T01:03:06.802Z,47.05
2023-03-05T01:05:35.047Z,43.97
2023-03-05T01:08:03.241Z,40.65
2023-03-05T01:10:31.562Z,48.05
2023-03-05T01:12:59.589Z,46.97
2023-03-05T01:15:29.035Z,47.28
2023-03-05T01:17:57.063Z,49.67
2023-03-05T01:20:25.173Z,44.30
2023-03-05T01:22:53.987Z,48.63
2023-03-05T01:25:22.139Z,49.58
2023-03-05T01:27:50.216Z,50.40
2023-03-05T01:30:18.457Z,43.35
2023-03-05T01:32:48.017Z,50.35
2023-03-05T01:35:19.328Z,49.65
2023-03-05T01:37:47.524Z,48.78
2023-03-05T01:40:18.578Z,46.50
2023-03-05T01:42:48.193Z,55.50
2023-03-05T01:45:19.475Z,55.40
2023-03-05T01:47:49.110Z,52.80
2023-03-05T01:50:20.908Z,57.20
2023-03-05T01:52:52.580Z,56.85
2023-03-05T01:55:23.692Z,51.40
2023-03-05T01:57:55.247Z,51.95
2023-03-05T02:00:29.087Z,57.28
2023-03-05T02:03:02.763Z,63.20
2023-03-05T02:05:33.399Z,59.53
2023-03-05T02:08:03.355Z,58.45
2023-03-05T02:10:34.135Z,59.08
2023-03-05T02:13:05.262Z,55.70
2023-03-05T02:15:34.537Z,61.42
2023-03-05T02:18:04.126Z,55.58
2023-03-05T02:20:44.664Z,57.60
2023-03-05T02:23:14.084Z,57.75
2023-03-05T02:25:42.208Z,59.00
2023-03-05T02:28:16.561Z,61.38
2023-03-05T02:30:44.720Z,56.90
2023-03-05T02:33:14.370Z,60.47
2023-03-05T02:35:43.804Z,53.33
2023-03-05T02:38:13.870Z,56.97
2023-03-05T02:40:41.902Z,58.90
2023-03-05T02:43:10.573Z,59.15
2023-03-05T02:45:39.051Z,57.33
2023-03-05T02:48:07.824Z,61.55
2023-03-05T02:50:36.658Z,58.55
2023-03-05T02:53:04.798Z,60.90
2023-03-05T02:55:34.178Z,60.47
2023-03-05T02:58:02.548Z,62.88
2023-03-05T03:00:31.222Z,60.00
2023-03-05T03:02:59.293Z,63.53
2023-03-05T03:05:27.543Z,59.00
2023-03-05T03:07:55.557Z,59.30
2023-03-05T03:10:23.826Z,63.80
2023-03-05T03:12:53.185Z,65.13
2023-03-05T03:15:21.357Z,59.53
2023-03-05T03:17:49.729Z,63.70
2023-03-05T03:20:19.064Z,61.95
2023-03-05T03:22:48.087Z,61.53
2023-03-05T03:25:17.493Z,60.05
2023-03-05T03:27:45.683Z,66.43
2023-03-05T03:30:17.335Z,60.80
2023-03-05T03:32:45.572Z,66.68
2023-03-05T03:35:14.693Z,65.40
2023-03-05T03:37:42.782Z,62.08
2023-03-05T03:40:12.587Z,65.55
2023-03-05T03:42:40.623Z,63.33
2023-03-05T03:45:09.813Z,68.90
2023-03-05T03:47:39.396Z,63.97
2023-03-05T03:50:08.342Z,65.82
2023-03-05T03:52:36.471Z,64.50
2023-03-05T03:55:04.875Z,73.65
2023-03-05T03:57:33.525Z,77.53
2023-03-05T04:00:01.814Z,70.60
2023-03-05T04:02:29.909Z,72.43
2023-03-05T04:04:59.337Z,81.57
2023-03-05T04:07:27.592Z,90.13
2023-03-05T04:09:55.872Z,82.32
2023-03-05T04:12:23.909Z,80.45
2023-03-05T04:14:52.033Z,83.85
2023-03-05T04:17:20.034Z,76.95
2023-03-05T04:19:48.104Z,69.35
2023-03-05T04:22:18.832Z,74.80
2023-03-05T04:24:47.144Z,77.65
2023-03-05T04:27:15.136Z,69.90
2023-03-05T04:29:43.276Z,75.15
2023-03-05T04:32:11.501Z,71.53
2023-03-05T04:34:39.780Z,76.68
2023-03-05T04:37:08.691Z,75.13
2023-03-05T04:39:38.317Z,68.85
2023-03-05T04:42:06.760Z,75.57
2023-03-05T04:44:34.733Z,77.68
2023-03-05T04:47:02.660Z,77.63
2023-03-05T04:49:30.984Z,78.35
2023-03-05T04:51:59.028Z,81.63
2023-03-05T04:54:27.214Z,77.53
2023-03-05T04:56:56.717Z,83.78
2023-03-05T04:59:24.949Z,87.63
2023-03-05T05:01:53.003Z,82.55
2023-03-05T05:04:21.208Z,87.35
2023-03-05T05:06:49.170Z,85.68
2023-03-05T05:09:17.235Z,88.30
2023-03-05T05:11:45.368Z,83.32
2023-03-05T05:14:15.015Z,86.00
2023-03-05T05:16:43.120Z,84.10
2023-03-05T05:19:11.552Z,80.03
2023-03-05T05:21:39.936Z,78.15
2023-03-05T05:24:08.800Z,81.80
2023-03-05T05:26:37.092Z,78.65
2023-03-05T05:29:05.530Z,80.43
2023-03-05T05:31:35.127Z,79.25
2023-03-05T05:34:03.283Z,74.57
2023-03-05T05:36:31.376Z,75.35
2023-03-05T05:39:00.015Z,78.85
2023-03-05T05:41:28.091Z,76.45
2023-03-05T05:43:56.215Z,106.63
2023-03-05T05:46:24.897Z,80.80
2023-03-05T05:48:54.358Z,81.00
2023-03-05T05:51:24.399Z,68.53
2023-03-05T05:53:52.534Z,75.80
2023-03-05T05:56:21.258Z,81.57
2023-03-05T05:58:50.384Z,85.47
2023-03-05T06:01:23.608Z,76.63
2023-03-05T06:03:52.530Z,86.93
2023-03-05T06:06:29.387Z,71.53
2023-03-05T06:08:59.181Z,68.32
2023-03-05T06:11:27.174Z,65.60
2023-03-05T06:13:55.359Z,68.88
2023-03-05T06:16:25.862Z,66.90
2023-03-05T06:18:54.398Z,66.30
2023-03-05T06:21:24.617Z,66.45
2023-03-05T06:23:53.140Z,63.05
2023-03-05T06:26:23.307Z,61.78
2023-03-05T06:28:51.344Z,70.10
2023-03-05T06:31:21.963Z,66.80
2023-03-05T06:33:50.741Z,65.07
2023-03-05T06:36:20.785Z,66.80
2023-03-05T06:38:53.110Z,59.30
2023-03-05T06:41:23.228Z,65.57
2023-03-05T06:43:51.794Z,64.88
2023-03-05T06:46:21.646Z,68.53
2023-03-05T06:48:50.480Z,61.78
2023-03-05T06:51:21.208Z,64.90
2023-03-05T06:53:50.908Z,72.47
2023-03-05T06:56:20.251Z,69.05
2023-03-05T06:58:50.648Z,65.90
2023-03-05T07:01:19.726Z,63.22
2023-03-05T07:03:50.919Z,70.25
2023-03-05T07:06:19.807Z,63.33
2023-03-05T07:08:48.015Z,69.53
2023-03-05T07:11:19.612Z,71.97
2023-03-05T07:13:48.764Z,70.38
2023-03-05T07:16:18.677Z,68.70
2023-03-05T07:18:47.203Z,73.47
2023-03-05T07:21:18.515Z,65.88
2023-03-05T07:23:47.029Z,68.30
2023-03-05T07:26:15.404Z,68.85
2023-03-05T07:28:45.195Z,60.33
2023-03-05T07:31:15.052Z,68.50
2023-03-05T07:33:43.181Z,62.30
2023-03-05T07:36:11.949Z,63.97
2023-03-05T07:38:40.193Z,56.15
2023-03-05T07:41:10.452Z,56.80
2023-03-05T07:43:39.006Z,58.95
2023-03-05T07:46:10.127Z,61.67
2023-03-05T07:48:38.383Z,56.60
2023-03-05T07:51:08.680Z,57.08
2023-03-05T07:53:36.954Z,49.50
2023-03-05T07:56:05.520Z,52.95
2023-03-05T07:58:33.746Z,50.25
2023-03-05T08:01:01.756Z,62.03
2023-03-05T08:03:31.255Z,49.97
2023-03-05T08:05:59.326Z,52.85
2023-03-05T08:08:27.356Z,47.78
2023-03-05T08:10:55.337Z,67.47
2023-03-05T08:13:23.380Z,47.65
2023-03-05T08:15:51.559Z,45.42
2023-03-05T08:18:19.635Z,48.05
2023-03-05T08:20:49.072Z,54.75
2023-03-05T08:23:17.129Z,44.85
2023-03-05T08:25:45.212Z,44.72
2023-03-05T08:28:13.406Z,43.40
2023-03-05T08:30:42.432Z,45.55
2023-03-05T08:33:10.398Z,44.90
2023-03-05T08:35:38.494Z,45.25
2023-03-05T08:38:08.061Z,43.28
2023-03-05T08:40:36.029Z,42.00
2023-03-05T08:43:05.861Z,41.75
2023-03-05T08:45:33.862Z,45.13
2023-03-05T08:48:01.918Z,36.80
2023-03-05T08:50:29.973Z,38.10
2023-03-05T08:52:58.134Z,36.53
2023-03-05T08:55:27.654Z,41.65
2023-03-05T08:57:55.702Z,41.42
2023-03-05T09:00:24.303Z,37.65
2023-03-05T09:02:52.507Z,35.90
2023-03-05T09:05:20.790Z,35.90
2023-03-05T09:07:48.973Z,36.17
2023-03-05T09:10:18.386Z,36.03
2023-03-05T09:12:49.245Z,34.97
2023-03-05T09:15:17.496Z,30.42
2023-03-05T09:17:45.566Z,34.67
2023-03-05T09:20:15.449Z,33.33
2023-03-05T09:22:43.662Z,31.38
2023-03-05T09:25:13.196Z,31.55
2023-03-05T09:27:41.267Z,32.70
2023-03-05T09:30:13.630Z,32.35
2023-03-05T09:32:41.901Z,31.40
2023-03-05T09:35:11.196Z,30.90
2023-03-05T09:37:39.299Z,31.13
2023-03-05T09:40:08.737Z,28.95
2023-03-05T09:42:49.554Z,31.10
2023-03-05T09:45:27.691Z,28.55
2023-03-05T09:48:07.538Z,30.25
2023-03-05T09:50:40.302Z,30.73
2023-03-05T09:53:24.630Z,30.35
2023-03-05T09:55:55.161Z,31.90
2023-03-05T09:58:35.331Z,28.95
2023-03-05T10:01:08.034Z,33.35
2023-03-05T10:03:52.602Z,31.70
2023-03-05T10:06:24.056Z,25.23
2023-03-05T10:08:57.141Z,25.55
2023-03-05T10:11:39.530Z,28.15
2023-03-05T10:14:13.889Z,24.35
2023-03-05T10:16:57.363Z,26.90
2023-03-05T10:19:49.976Z,31.15
2023-03-05T10:22:22.043Z,30.13
2023-03-05T10:25:15.172Z,30.92
2023-03-05T10:27:49.553Z,30.45
2023-03-05T10:30:40.105Z,33.60
2023-03-05T10:33:20.418Z,32.33
2023-03-05T10:36:03.330Z,28.63
2023-03-05T10:38:54.824Z,31.35
2023-03-05T10:41:31.013Z,30.92
2023-03-05T10:44:06.181Z,34.30
2023-03-05T10:46:38.103Z,29.55
2023-03-05T10:49:19.031Z,31.73
2023-03-05T10:51:53.106Z,33.03
2023-03-05T10:54:27.066Z,34.47
2023-03-05T10:57:05.767Z,30.20
2023-03-05T10:59:34.051Z,34.92
2023-03-05T11:02:08.896Z,36.03
2023-03-05T11:04:40.699Z,35.55
2023-03-05T11:07:30.476Z,38.72
2023-03-05T11:10:06.614Z,34.88
2023-03-05T11:12:35.669Z,31.42
2023-03-05T11:15:07.174Z,33.22
2023-03-05T11:17:38.649Z,36.13
2023-03-05T11:20:33.925Z,30.77
2023-03-05T11:23:10.673Z,36.05
2023-03-05T11:25:54.158Z,33.45
2023-03-05T11:28:33.031Z,33.00
2023-03-05T11:31:05.658Z,33.58
2023-03-05T11:33:34.111Z,31.63
2023-03-05T11:36:22.383Z,34.97
2023-03-05T11:38:54.649Z,32.08
2023-03-05T11:41:29.557Z,33.33
2023-03-05T11:44:00.196Z,33.70
2023-03-05T11:46:29.245Z,34.30
2023-03-05T11:48:59.270Z,32.13
2023-03-05T11:51:37.667Z,33.00
2023-03-05T11:54:13.321Z,34.50
2023-03-05T11:56:44.887Z,32.70
2023-03-05T11:59:17.988Z,31.20
2023-03-05T12:01:51.322Z,34.35
2023-03-05T12:04:20.664Z,33.50
2023-03-05T12:06:51.775Z,33.92
2023-03-05T12:09:28.435Z,29.92
2023-03-05T12:12:05.885Z,34.35
2023-03-05T12:14:46.270Z,30.80
2023-03-05T12:17:20.198Z,32.83
2023-03-05T12:19:54.971Z,29.58
2023-03-05T12:22:27.342Z,29.55
2023-03-05T12:25:26.768Z,28.67
2023-03-05T12:27:55.014Z,26.48
2023-03-05T12:30:56.391Z,26.00
2023-03-05T12:33:34.107Z,26.25
2023-03-05T12:36:37.195Z,25.63
2023-03-05T12:39:47.727Z,26.85
2023-03-05T12:42:52.732Z,26.92
2023-03-05T12:45:29.852Z,30.80
2023-03-05T12:48:44.041Z,29.60
2023-03-05T12:51:29.303Z,26.92
2023-03-05T12:53:57.596Z,28.80
2023-03-05T12:56:32.890Z,29.63
2023-03-05T12:59:02.991Z,29.48
2023-03-05T13:01:37.374Z,28.30
2023-03-05T13:04:11.099Z,27.67
2023-03-05T13:06:40.323Z,25.48
2023-03-05T13:09:17.236Z,25.73
2023-03-05T13:11:51.145Z,32.50
2023-03-05T13:14:36.269Z,30.95
2023-03-05T13:17:24.943Z,31.25
2023-03-05T13:19:54.032Z,27.27
2023-03-05T13:22:24.648Z,32.80
2023-03-05T13:25:11.965Z,32.53
2023-03-05T13:27:41.659Z,28.42
2023-03-05T13:30:22.867Z,27.42
2023-03-05T13:32:53.013Z,25.23
2023-03-05T13:35:22.687Z,26.33
2023-03-05T13:37:51.096Z,27.30
2023-03-05T13:40:25.000Z,26.88
2023-03-05T13:42:56.738Z,27.48
2023-03-05T13:45:28.344Z,28.33
2023-03-05T13:47:59.503Z,31.35
2023-03-05T13:50:31.031Z,29.13
2023-03-05T13:53:16.936Z,26.73
2023-03-05T13:55:45.175Z,29.55
2023-03-05T13:58:47.522Z,28.50
2023-03-05T14:01:22.925Z,28.17
2023-03-05T14:03:52.491Z,24.30
2023-03-05T14:06:22.931Z,23.55
2023-03-05T14:08:53.314Z,23.88
2023-03-05T14:11:24.249Z,20.17
2023-03-05T14:14:05.143Z,23.40
2023-03-05T14:16:33.828Z,25.63
2023-03-05T14:19:03.613Z,21.20
2023-03-05T14:21:48.230Z,20.80
2023-03-05T14:24:22.857Z,23.20
2023-03-05T14:26:53.909Z,24.75
2023-03-05T14:29:27.786Z,23.52
2023-03-05T14:31:58.748Z,21.80
2023-03-05T14:34:30.736Z,23.55
2023-03-05T14:37:01.127Z,23.88
2023-03-05T14:39:31.359Z,23.45
2023-03-05T14:42:15.856Z,24.63
2023-03-05T14:44:45.307Z,23.27
2023-03-05T14:47:13.422Z,23.73
2023-03-05T14:49:41.347Z,26.45
2023-03-05T14:52:14.749Z,22.27
2023-03-05T14:54:42.970Z,23.02
2023-03-05T14:57:16.545Z,24.50
2023-03-05T14:59:46.061Z,27.50
2023-03-05T15:02:17.349Z,27.38
2023-03-05T15:04:46.938Z,28.27
2023-03-05T15:07:20.945Z,30.83
2023-03-05T15:09:49.236Z,27.33
2023-03-05T15:12:18.504Z,28.25
2023-03-05T15:14:48.001Z,30.42
2023-03-05T15:17:20.346Z,28.00
2023-03-05T15:19:49.146Z,30.27
2023-03-05T15:22:17.995Z,29.17
2023-03-05T15:24:46.140Z,32.03
2023-03-05T15:27:14.648Z,34.67
2023-03-05T15:29:42.780Z,31.33
2023-03-05T15:32:12.432Z,30.67
2023-03-05T15:34:40.436Z,32.78
2023-03-05T15:37:08.746Z,36.38
2023-03-05T15:39:36.891Z,32.30
2023-03-05T15:42:06.438Z,32.65
2023-03-05T15:44:34.695Z,38.22
2023-03-05T15:47:02.795Z,36.60
2023-03-05T15:49:32.231Z,36.40
2023-03-05T15:52:00.774Z,36.00
2023-03-05T15:54:28.884Z,34.30
2023-03-05T15:56:56.985Z,36.90
2023-03-05T15:59:25.238Z,36.88
2023-03-05T16:01:53.718Z,34.15
2023-03-05T16:04:21.853Z,37.47
2023-03-05T16:06:51.765Z,37.78
2023-03-05T16:09:21.773Z,36.97
2023-03-05T16:11:51.622Z,36.05
2023-03-05T16:14:24.290Z,36.78
2023-03-05T16:16:54.815Z,34.97
2023-03-05T16:19:24.535Z,38.58
2023-03-05T16:21:54.038Z,34.75
2023-03-05T16:24:22.246Z,36.88
2023-03-05T16:26:50.243Z,33.42
2023-03-05T16:29:18.421Z,35.83
2023-03-05T16:31:47.688Z,38.33
2023-03-05T16:34:16.333Z,34.47
2023-03-05T16:36:49.072Z,34.22
2023-03-05T16:39:18.493Z,34.17
2023-03-05T16:41:46.682Z,31.17
2023-03-05T16:44:15.056Z,38.95
2023-03-05T16:46:47.206Z,32.72
2023-03-05T16:49:15.454Z,32.33
2023-03-05T16:51:43.494Z,35.83
2023-03-05T16:54:11.528Z,34.45
2023-03-05T16:56:40.897Z,38.60
2023-03-05T16:59:08.840Z,41.78
2023-03-05T17:01:37.053Z,39.97
2023-03-05T17:04:05.289Z,43.00
2023-03-05T17:06:34.844Z,35.15
2023-03-05T17:09:03.771Z,40.88
2023-03-05T17:11:34.592Z,47.53
2023-03-05T17:14:04.510Z,37.72
2023-03-05T17:16:32.709Z,35.13
2023-03-05T17:19:00.742Z,37.33
2023-03-05T17:21:28.907Z,41.00
2023-03-05T17:23:57.000Z,38.65
2023-03-05T17:26:24.990Z,36.40
2023-03-05T17:28:54.502Z,37.45
2023-03-05T17:31:24.160Z,28.77
2023-03-05T17:33:52.358Z,22.88
2023-03-05T17:36:21.949Z,25.77
2023-03-05T17:38:51.091Z,24.17
2023-03-05T17:41:20.094Z,29.88
2023-03-05T17:43:48.106Z,31.10
2023-03-05T17:46:17.218Z,30.65
2023-03-05T17:48:46.800Z,31.38
2023-03-05T17:51:16.788Z,30.52
2023-03-05T17:53:45.160Z,34.25
2023-03-05T17:56:17.217Z,34.67
2023-03-05T17:58:45.302Z,34.97
2023-03-05T18:01:13.269Z,32.13
2023-03-05T18:03:41.307Z,24.00
2023-03-05T18:06:10.669Z,23.60
2023-03-05T18:08:39.486Z,24.55
2023-03-05T18:11:07.592Z,21.08
2023-03-05T18:13:35.667Z,15.77
2023-03-05T18:16:04.038Z,17.10
2023-03-05T18:18:32.041Z,18.65
2023-03-05T18:21:00.176Z,16.35
2023-03-05T18:23:29.652Z,20.55
2023-03-05T18:25:59.462Z,20.15
2023-03-05T18:28:27.775Z,23.92
2023-03-05T18:30:55.814Z,20.30
2023-03-05T18:33:25.947Z,17.27
2023-03-05T18:35:54.740Z,19.05
2023-03-05T18:38:24.261Z,19.92
2023-03-05T18:40:55.260Z,19.25
2023-03-05T18:43:24.785Z,20.98
2023-03-05T18:45:55.696Z,18.85
2023-03-05T18:48:24.291Z,19.20
2023-03-05T18:50:58.521Z,22.48
2023-03-05T18:53:27.297Z,19.70
2023-03-05T18:56:03.178Z,20.33
2023-03-05T18:58:31.470Z,21.65
2023-03-05T19:01:04.367Z,22.08
2023-03-05T19:03:32.683Z,21.38
2023-03-05T19:06:01.817Z,21.63
2023-03-05T19:08:30.124Z,20.70
2023-03-05T19:11:02.878Z,21.77
2023-03-05T19:13:40.839Z,21.73
2023-03-05T19:16:11.404Z,23.05
2023-03-05T19:19:06.375Z,23.67
2023-03-05T19:21:34.400Z,23.73
2023-03-05T19:24:02.470Z,31.05
2023-03-05T19:26:31.816Z,24.90
2023-03-05T19:28:59.764Z,21.60
2023-03-05T19:31:27.888Z,21.48
2023-03-05T19:33:56.007Z,21.40
2023-03-05T19:36:24.490Z,23.00
2023-03-05T19:38:52.586Z,22.33
2023-03-05T19:41:21.840Z,24.90
2023-03-05T19:43:51.255Z,18.67
2023-03-05T19:46:19.547Z,21.17
2023-03-05T19:48:47.718Z,24.88
2023-03-05T19:51:19.152Z,19.80
2023-03-05T19:53:48.189Z,18.90
2023-03-05T19:56:17.454Z,21.45
2023-03-05T19:58:48.906Z,17.77
2023-03-05T20:01:20.156Z,17.40
2023-03-05T20:03:49.883Z,20.48
2023-03-05T20:06:18.666Z,20.30
2023-03-05T20:08:47.199Z,21.73
2023-03-05T20:11:17.048Z,17.75
2023-03-05T20:13:45.649Z,24.17
2023-03-05T20:16:19.812Z,18.00
2023-03-05T20:18:52.609Z,17.13
2023-03-05T20:21:23.222Z,20.75
2023-03-05T20:23:51.661Z,20.17
2023-03-05T20:26:19.998Z,18.95
2023-03-05T20:28:48.600Z,20.42
2023-03-05T20:31:21.202Z,18.48
2023-03-05T20:33:49.552Z,19.30
2023-03-05T20:36:17.804Z,22.83
2023-03-05T20:38:46.392Z,22.60
2023-03-05T20:41:16.717Z,23.75
2023-03-05T20:43:46.605Z,29.65
2023-03-05T20:46:21.589Z,31.10
2023-03-05T20:51:22.514Z,24.42
2023-03-05T20:53:50.917Z,25.40
2023-03-05T20:56:19.007Z,26.27
2023-03-05T20:58:47.039Z,27.17
2023-03-05T21:01:15.142Z,32.00
2023-03-05T21:03:44.698Z,31.98
2023-03-05T21:06:12.724Z,30.92
2023-03-05T21:08:41.030Z,30.77
2023-03-05T21:11:10.167Z,28.00
2023-03-05T21:13:38.950Z,29.25
2023-03-05T21:16:08.539Z,32.05
2023-03-05T21:18:36.730Z,28.42
2023-03-05T21:21:08.118Z,30.10
2023-03-05T21:23:36.645Z,32.42
2023-03-05T21:26:05.183Z,31.83
2023-03-05T21:28:33.433Z,28.58
2023-03-05T21:31:08.465Z,28.05
2023-03-05T21:36:07.315Z,29.48
2023-03-05T21:38:35.357Z,30.75
2023-03-05T21:41:04.019Z,28.00
2023-03-05T21:43:32.634Z,32.55
2023-03-05T21:46:03.125Z,27.95
2023-03-05T21:48:32.000Z,33.03
2023-03-05T21:51:00.504Z,31.58
2023-03-05T21:53:29.834Z,32.25
2023-03-05T21:56:25.478Z,31.42
2023-03-05T21:58:54.056Z,32.70
2023-03-05T22:01:22.707Z,33.28
2023-03-05T22:03:51.248Z,33.58
2023-03-05T22:06:20.058Z,34.47
2023-03-05T22:08:49.993Z,34.15
2023-03-05T22:11:20.792Z,37.03
2023-03-05T22:13:48.842Z,32.72
2023-03-05T22:16:23.757Z,35.33
2023-03-05T22:21:23.033Z,33.35
2023-03-05T22:23:53.443Z,33.35
2023-03-05T22:26:21.560Z,37.67
2023-03-05T22:28:49.679Z,36.20
2023-03-05T22:31:22.332Z,35.20
2023-03-05T22:33:50.898Z,34.55
2023-03-05T22:36:19.373Z,38.90
2023-03-05T22:38:47.615Z,36.53
2023-03-05T22:41:19.724Z,36.60
2023-03-05T22:43:48.912Z,40.72
2023-03-05T22:46:20.063Z,35.72
2023-03-05T22:48:48.210Z,39.80
2023-03-05T22:51:17.336Z,33.95
2023-03-05T22:53:45.987Z,37.70
2023-03-05T22:56:17.489Z,36.42
2023-03-05T22:58:45.693Z,31.52
2023-03-05T23:01:14.776Z,34.90
2023-03-05T23:04:00.490Z,37.30
2023-03-05T23:06:28.783Z,36.85
2023-03-05T23:08:56.886Z,31.83
2023-03-05T23:11:26.209Z,33.33
2023-03-05T23:13:54.162Z,28.83
2023-03-05T23:16:22.172Z,28.73
2023-03-05T23:18:50.270Z,29.20
2023-03-05T23:21:18.350Z,29.85
2023-03-05T23:23:46.512Z,27.60
2023-03-05T23:26:14.491Z,33.25
2023-03-05T23:28:44.069Z,28.33
2023-03-05T23:31:12.231Z,26.75
2023-03-05T23:33:40.284Z,27.67
2023-03-05T23:36:09.697Z,26.55
2023-03-05T23:38:37.861Z,24.98
2023-03-05T23:41:09.475Z,23.90
2023-03-05T23:43:37.689Z,20.67
2023-03-05T23:46:11.679Z,21.58
2023-03-05T23:48:39.908Z,19.98
2023-03-05T23:51:09.916Z,24.10
2023-03-05T23:53:37.856Z,18.27
2023-03-05T23:56:11.241Z,22.50
2023-03-05T23:58:39.806Z,19.83
